Terminal Aerodrome Forecast
Issued by NWS

Home | Current Version | Previous Version | Text Only | Print | Product List | Glossary On
Versions: 1 2 3 4 5 6 7 8 9 10 11 12 13 14 15
000
FTUS44 KLZK 031100
TAFHOT
TAF
KHOT 031130Z 0312/0412 VRB03KT 1SM BR OVC003
     FM031400 20005KT 3SM BR VCSH OVC005
     FM040000 VRB03KT 3SM -RA BR OVC004=

USA.gov is the U.S. government's official web portal to all federal, state and local government web resources and services.